D/T METAR WX W/DIR W/SPE G/SPE TEMP DEWP
15/01/19 19:50 EGKA 151950Z 23010KT 9999 BKN028 09/06 Q1017 SW (230°) 11.5mph 9°C 6°C
15/01/19 19:20 EGKA 151920Z 22009KT 9999 BKN031 09/07 Q1017 SW (220°) 10.4mph 9°C 7°C
15/01/19 18:50 EGKA 151850Z 22007KT 9999 BKN032 09/07 Q1017 SW (220°) 8.1mph 9°C 7°C
15/01/19 18:20 EGKA 151820Z 23011KT 9999 FEW015 BKN032 09/07 Q1018 SW (230°) 12.7mph 9°C 7°C
15/01/19 17:50 EGKA 151750Z 23010KT 9999 FEW015 BKN029 08/06 Q1018 SW (230°) 11.5mph 8°C 6°C
15/01/19 17:20 EGKA 151720Z 24010KT 9999 FEW015 BKN028 09/05 Q1018 WSW (240°) 11.5mph 9°C 5°C
15/01/19 16:50 EGKA 151650Z 23009KT 9999 FEW015 BKN031 09/06 Q1018 SW (230°) 10.4mph 9°C 6°C
15/01/19 16:20 EGKA 151620Z 24009KT 9999 FEW011 BKN026 09/06 Q1018 WSW (240°) 10.4mph 9°C 6°C
15/01/19 15:50 EGKA 151550Z 24010KT 9999 FEW010 SCT013 BKN029 09/07 Q1019 WSW (240°) 11.5mph 9°C 7°C
15/01/19 15:20 EGKA 151520Z 24010KT 9999 FEW009 SCT013 BKN029 09/06 Q1019 WSW (240°) 11.5mph 9°C 6°C
15/01/19 14:20 EGKA 151420Z 23012KT 9999 FEW009 BKN029 09/07 Q1019 SW (230°) 13.8mph 9°C 7°C
15/01/19 13:50 EGKA 151350Z 23012KT 9999 FEW012 BKN029 09/07 Q1019 SW (230°) 13.8mph 9°C 7°C
15/01/19 13:20 EGKA 151320Z 23012KT 9999 FEW014 BKN019 09/06 Q1020 SW (230°) 13.8mph 9°C 6°C
15/01/19 12:20 EGKA 151220Z 24010KT 9999 SCT016 09/06 Q1020 WSW (240°) 11.5mph 9°C 6°C
15/01/19 11:50 EGKA 151150Z 24012KT 9999 FEW017 BKN026 10/06 Q1021 WSW (240°) 13.8mph 10°C 6°C
15/01/19 11:20 EGKA 151120Z 25008KT 9999 FEW016 BKN028 08/06 Q1021 WSW (250°) 9.2mph 8°C 6°C
15/01/19 10:50 EGKA 151050Z 27006KT 9999 FEW016 BKN026 08/06 Q1021 W (270°) 6.9mph 8°C 6°C
15/01/19 10:20 EGKA 151020Z 26003KT 9999 FEW015 BKN026 07/06 Q1022 W (260°) 3.5mph 7°C 6°C
15/01/19 09:50 EGKA 150950Z 27002KT 9999 FEW013 BKN025 07/05 Q1022 W (270°) 2.3mph 7°C 5°C
15/01/19 09:20 EGKA 150920Z 26003KT 9999 FEW014 BKN026 06/05 Q1022 W (260°) 3.5mph 6°C 5°C
15/01/19 08:50 EGKA 150850Z 26004KT 9999 FEW015 BKN022 06/05 Q1022 W (260°) 4.6mph 6°C 5°C
15/01/19 08:20 EGKA 150820Z 24005KT 9000 BKN019 06/04 Q1022 WSW (240°) 5.8mph 6°C 4°C
15/01/19 07:50 EGKA 150750Z 26005KT 9999 BKN021 06/04 Q1022 W (260°) 5.8mph 6°C 4°C
14/01/19 19:50 EGKA 141950Z 27006KT 9999 BKN046 05/01 Q1023 W (270°) 6.9mph 5°C 1°C
14/01/19 19:20 EGKA 141920Z VRB03KT 9999 BKN046 07/02 Q1023 N (0°) 3.5mph 7°C 2°C
14/01/19 18:50 EGKA 141850Z 27005KT 9999 FEW018 BKN046 07/02 Q1023 W (270°) 5.8mph 7°C 2°C
14/01/19 18:20 EGKA 141820Z 27007KT 9999 FEW018 BKN045 07/02 Q1023 W (270°) 8.1mph 7°C 2°C
14/01/19 17:50 EGKA 141750Z 27006KT 9999 FEW018 BKN037 08/02 Q1023 W (270°) 6.9mph 8°C 2°C
14/01/19 17:20 EGKA 141720Z 28006KT 9999 FEW018 BKN041 08/02 Q1023 W (280°) 6.9mph 8°C 2°C
14/01/19 16:50 EGKA 141650Z 27006KT 9999 FEW018 BKN044 08/03 Q1023 W (270°) 6.9mph 8°C 3°C
14/01/19 16:20 EGKA 141620Z 27005KT 9999 FEW018 BKN034 08/03 Q1023 W (270°) 5.8mph 8°C 3°C
14/01/19 15:20 EGKA 141520Z 30005KT 9999 FEW024 BKN042 09/03 Q1022 WNW (300°) 5.8mph 9°C 3°C
14/01/19 14:50 EGKA 141450Z 31010KT 9999 BKN038 09/03 Q1022 NW (310°) 11.5mph 9°C 3°C
14/01/19 13:50 EGKA 141350Z 30008KT 9999 BKN043 10/03 Q1021 WNW (300°) 9.2mph 10°C 3°C
14/01/19 13:20 EGKA 141320Z 31014KT 9999 SCT032 09/02 Q1021 NW (310°) 16.1mph 9°C 2°C
14/01/19 12:50 EGKA 141250Z 31010KT 9999 FEW032 10/03 Q1021 NW (310°) 11.5mph 10°C 3°C
14/01/19 12:20 EGKA 141220Z 31012KT 9999 SCT030 10/05 Q1021 NW (310°) 13.8mph 10°C 5°C
14/01/19 11:20 EGKA 141120Z 30009KT 9999 FEW032 09/04 Q1021 WNW (300°) 10.4mph 9°C 4°C
14/01/19 10:50 EGKA 141050Z 30011KT 9999 FEW032 09/04 Q1021 WNW (300°) 12.7mph 9°C 4°C
14/01/19 10:20 EGKA 141020Z 30010KT 9999 FEW032 07/03 Q1021 WNW (300°) 11.5mph 7°C 3°C
14/01/19 09:50 EGKA 140950Z 29011KT 9999 BKN032 08/03 Q1021 WNW (290°) 12.7mph 8°C 3°C
14/01/19 09:20 EGKA 140920Z 28010KT 9999 SCT032 06/03 Q1021 W (280°) 11.5mph 6°C 3°C
14/01/19 08:50 EGKA 140850Z 27008KT 9999 SCT032 05/02 Q1020 W (270°) 9.2mph 5°C 2°C
14/01/19 07:50 EGKA 140750Z 27009KT 9999 FEW035 05/02 Q1019 W (270°) 10.4mph 5°C 2°C
13/01/19 18:50 EGKA 131850Z 27012KT 9999 SCT048 10/08 Q1012 W (270°) 13.8mph 10°C 8°C
13/01/19 18:20 EGKA 131820Z 26013KT 9999 FEW022 SCT046 10/08 Q1012 W (260°) 15.0mph 10°C 8°C
13/01/19 17:50 EGKA 131750Z 28012KT 9999 FEW022 SCT044 11/08 Q1012 W (280°) 13.8mph 11°C 8°C
13/01/19 17:20 EGKA 131720Z 28015KT 9999 FEW022 SCT044 11/08 Q1012 W (280°) 17.3mph 11°C 8°C
13/01/19 15:50 EGKA 131550Z 28016G26KT 9999 SCT016 BKN020 11/08 Q1012 W (280°) 18.4mph 29.9mph 11°C 8°C
13/01/19 15:20 EGKA 131520Z 28018G29KT 9999 SCT016 11/08 Q1012 W (280°) 20.7mph 33.4mph 11°C 8°C
13/01/19 14:50 EGKA 131450Z 29018G30KT 9999 SCT016 12/08 Q1012 WNW (290°) 20.7mph 34.5mph 12°C 8°C
13/01/19 13:50 EGKA 131350Z 28015G25KT 9999 FEW018 13/09 Q1012 W (280°) 17.3mph 28.8mph 13°C 9°C
13/01/19 13:20 EGKA 131320Z 28019G32KT 9999 FEW020 12/08 Q1013 W (280°) 21.9mph 36.8mph 12°C 8°C
13/01/19 11:50 EGKA 131150Z 29012KT 9999 FEW022 11/07 Q1014 WNW (290°) 13.8mph 11°C 7°C
13/01/19 11:20 EGKA 131120Z 27006KT CAVOK 10/07 Q1015 W (270°) 6.9mph 10°C 7°C
13/01/19 10:50 EGKA 131050Z 27006KT CAVOK 10/07 Q1015 W (270°) 6.9mph 10°C 7°C
13/01/19 10:20 EGKA 131020Z 27008KT CAVOK 10/07 Q1015 W (270°) 9.2mph 10°C 7°C
13/01/19 09:20 EGKA 130920Z 27007KT CAVOK 09/07 Q1015 W (270°) 8.1mph 9°C 7°C
13/01/19 08:50 EGKA 130850Z 28005KT 9999 FEW025 09/04 Q1015 W (280°) 5.8mph 9°C 4°C
12/01/19 18:50 EGKA 121850Z 25008KT 9999 SCT022 08/06 Q1021 WSW (250°) 9.2mph 8°C 6°C
12/01/19 18:20 EGKA 121820Z 25006KT 9999 SCT022 08/06 Q1021 WSW (250°) 6.9mph 8°C 6°C
12/01/19 17:50 EGKA 121750Z 25006KT 9999 SCT022 09/07 Q1021 WSW (250°) 6.9mph 9°C 7°C
12/01/19 17:20 EGKA 121720Z 27005KT 9999 -RA SCT018 08/06 Q1021 -RA W (270°) 5.8mph 8°C 6°C
12/01/19 15:50 EGKA 121550Z 27008KT 9999 SCT015 BKN024 10/07 Q1021 W (270°) 9.2mph 10°C 7°C
12/01/19 15:20 EGKA 121520Z 25007KT 9999 SCT013 BKN020 09/08 Q1021 WSW (250°) 8.1mph 9°C 8°C
12/01/19 14:50 EGKA 121450Z 25008KT 9999 SCT011 BKN018 09/08 Q1021 WSW (250°) 9.2mph 9°C 8°C
12/01/19 14:20 EGKA 121420Z 26009KT 9999 SCT011 BKN018 09/08 Q1022 W (260°) 10.4mph 9°C 8°C
12/01/19 13:50 EGKA 121350Z 25012KT 9999 SCT011 BKN022 09/07 Q1022 WSW (250°) 13.8mph 9°C 7°C
12/01/19 13:20 EGKA 121320Z 26011KT 9999 SCT010 BKN016 10/08 Q1022 W (260°) 12.7mph 10°C 8°C
12/01/19 11:20 EGKA 121120Z 26012KT 9999 SCT010 BKN012 09/07 Q1023 W (260°) 13.8mph 9°C 7°C
12/01/19 10:50 EGKA 121050Z 25012KT 9999 SCT010 BKN012 09/07 Q1024 WSW (250°) 13.8mph 9°C 7°C
12/01/19 10:20 EGKA 121020Z 25012KT 9999 SCT010 BKN011 09/07 Q1024 WSW (250°) 13.8mph 9°C 7°C
12/01/19 09:50 EGKA 120950Z 25012KT 9999 SCT010 BKN016 09/07 Q1024 WSW (250°) 13.8mph 9°C 7°C
12/01/19 09:20 EGKA 120920Z 25011KT 9999 SCT010 BKN016 09/07 Q1025 WSW (250°) 12.7mph 9°C 7°C
12/01/19 08:50 EGKA 120850Z 25008KT 8000 SCT010 BKN014 08/07 Q1025 WSW (250°) 9.2mph 8°C 7°C
12/01/19 08:20 EGKA 120820Z 26007KT 7000 SCT010 BKN014 08/07 Q1025 W (260°) 8.1mph 8°C 7°C
11/01/19 19:50 EGKA 111950Z 21002KT CAVOK 02/01 Q1031 SSW (210°) 2.3mph 2°C 1°C
11/01/19 19:20 EGKA 111920Z VRB02KT CAVOK 03/03 Q1031 N (0°) 2.3mph 3°C 3°C
11/01/19 18:50 EGKA 111850Z 30002KT CAVOK 02/01 Q1031 WNW (300°) 2.3mph 2°C 1°C
11/01/19 18:20 EGKA 111820Z 29003KT CAVOK 04/03 Q1030 WNW (290°) 3.5mph 4°C 3°C
11/01/19 17:20 EGKA 111720Z 30004KT CAVOK 05/04 Q1030 WNW (300°) 4.6mph 5°C 4°C
11/01/19 16:50 EGKA 111650Z 31007KT CAVOK 06/04 Q1030 NW (310°) 8.1mph 6°C 4°C
11/01/19 16:20 EGKA 111620Z 31006KT CAVOK 06/04 Q1030 NW (310°) 6.9mph 6°C 4°C
11/01/19 15:50 EGKA 111550Z 31006KT CAVOK 07/05 Q1030 NW (310°) 6.9mph 7°C 5°C
11/01/19 15:20 EGKA 111520Z 33005KT CAVOK 08/05 Q1030 NNW (330°) 5.8mph 8°C 5°C
11/01/19 14:50 EGKA 111450Z VRB02KT CAVOK 08/06 Q1030 N (0°) 2.3mph 8°C 6°C
11/01/19 14:20 EGKA 111420Z 33004KT CAVOK 08/05 Q1030 NNW (330°) 4.6mph 8°C 5°C
11/01/19 13:50 EGKA 111350Z 32003KT CAVOK 08/06 Q1030 NW (320°) 3.5mph 8°C 6°C
11/01/19 13:20 EGKA 111320Z 33005KT CAVOK 09/06 Q1030 NNW (330°) 5.8mph 9°C 6°C
11/01/19 12:50 EGKA 111250Z 35004KT 310V020 8000 NSC 09/06 Q1030 N (350°) 4.6mph 9°C 6°C
11/01/19 12:20 EGKA 111220Z VRB02KT 8000 NSC 08/06 Q1030 N (0°) 2.3mph 8°C 6°C
11/01/19 11:50 EGKA 111150Z 35007KT 6000 NSC 08/06 Q1030 N (350°) 8.1mph 8°C 6°C
11/01/19 11:20 EGKA 111120Z 35006KT 6000 NSC 08/06 Q1030 N (350°) 6.9mph 8°C 6°C
11/01/19 10:20 EGKA 111020Z 36007KT 6000 NSC 07/06 Q1030 N (360°) 8.1mph 7°C 6°C
11/01/19 09:50 EGKA 110950Z 35007KT 6000 NSC 07/06 Q1030 N (350°) 8.1mph 7°C 6°C
11/01/19 09:20 EGKA 110920Z 34009KT 6000 NSC 06/05 Q1029 NNW (340°) 10.4mph 6°C 5°C
11/01/19 08:50 EGKA 110850Z 35012KT 6000 NSC 06/05 Q1029 N (350°) 13.8mph 6°C 5°C
11/01/19 08:20 EGKA 110820Z 34011KT 5000 BR NSC 06/05 Q1029 BR NNW (340°) 12.7mph 6°C 5°C
11/01/19 07:50 EGKA 110750Z 34009KT 5000 BR NSC 06/05 Q1029 BR NNW (340°) 10.4mph 6°C 5°C
10/01/19 19:20 EGKA 101920Z 30004KT 8000 FEW007 BKN018 04/02 Q1029 WNW (300°) 4.6mph 4°C 2°C
10/01/19 18:50 EGKA 101850Z 30003KT 9000 BKN022 04/02 Q1030 WNW (300°) 3.5mph 4°C 2°C
10/01/19 18:20 EGKA 101820Z 32002KT 8000 BKN020 04/02 Q1029 NW (320°) 2.3mph 4°C 2°C
10/01/19 17:50 EGKA 101750Z 31002KT 8000 BKN026 04/02 Q1029 NW (310°) 2.3mph 4°C 2°C
10/01/19 17:20 EGKA 101720Z 31003KT 8000 BKN029 04/02 Q1029 NW (310°) 3.5mph 4°C 2°C
10/01/19 16:50 EGKA 101650Z 33004KT 8000 SCT035 04/01 Q1029 NNW (330°) 4.6mph 4°C 1°C
10/01/19 16:20 EGKA 101620Z 33005KT 8000 SCT037 04/01 Q1029 NNW (330°) 5.8mph 4°C 1°C
10/01/19 15:20 EGKA 101520Z 33007KT CAVOK 04/01 Q1029 NNW (330°) 8.1mph 4°C 1°C
10/01/19 14:50 EGKA 101450Z 34008KT CAVOK 04/01 Q1030 NNW (340°) 9.2mph 4°C 1°C
10/01/19 14:20 EGKA 101420Z 34008KT 9000 -DZ NSC 04/02 Q1030 -DZ NNW (340°) 9.2mph 4°C 2°C
10/01/19 13:50 EGKA 101350Z 34010KT 9000 NSC 04/02 Q1030 NNW (340°) 11.5mph 4°C 2°C
10/01/19 13:20 EGKA 101320Z 35009KT 9000 NSC 04/02 Q1030 N (350°) 10.4mph 4°C 2°C
10/01/19 12:50 EGKA 101250Z 34009KT 7000 NSC 03/02 Q1030 NNW (340°) 10.4mph 3°C 2°C
10/01/19 12:20 EGKA 101220Z 35009KT 7000 NSC 03/01 Q1030 N (350°) 10.4mph 3°C 1°C
10/01/19 11:50 EGKA 101150Z 34008KT 6000 NSC 03/01 Q1030 NNW (340°) 9.2mph 3°C 1°C
10/01/19 11:20 EGKA 101120Z 34009KT 7000 NSC 02/01 Q1031 NNW (340°) 10.4mph 2°C 1°C
10/01/19 10:50 EGKA 101050Z 35007KT 7000 NSC 02/01 Q1031 N (350°) 8.1mph 2°C 1°C
10/01/19 09:50 EGKA 100950Z 34006KT 6000 NSC 01/00 Q1031 NNW (340°) 6.9mph 1°C 0°C
10/01/19 09:20 EGKA 100920Z 34008KT 6000 NSC 01/00 Q1031 NNW (340°) 9.2mph 1°C 0°C
10/01/19 08:50 EGKA 100850Z 34009KT 6000 NSC 01/00 Q1031 NNW (340°) 10.4mph 1°C 0°C
10/01/19 08:20 EGKA 100820Z 34009KT 6000 NSC 01/M00 Q1030 NNW (340°) 10.4mph 1°C 0°C
10/01/19 07:50 EGKA 100750Z 34009KT 5000 BR NSC 01/M00 Q1030 BR NNW (340°) 10.4mph 1°C 0°C
9/01/19 19:50 EGKA 091950Z 33006KT 9999 SCT021 03/01 Q1030 NNW (330°) 6.9mph 3°C 1°C
9/01/19 19:20 EGKA 091920Z 32004KT 9999 FEW042 03/00 Q1029 NW (320°) 4.6mph 3°C 0°C
9/01/19 18:50 EGKA 091850Z 33005KT 9999 FEW031 04/01 Q1029 NNW (330°) 5.8mph 4°C 1°C
9/01/19 18:20 EGKA 091820Z 32006KT 9999 FEW026 04/01 Q1029 NW (320°) 6.9mph 4°C 1°C
9/01/19 17:50 EGKA 091750Z 34005KT 9999 FEW037 04/01 Q1029 NNW (340°) 5.8mph 4°C 1°C
9/01/19 17:20 EGKA 091720Z 33005KT 9999 FEW032 03/00 Q1029 NNW (330°) 5.8mph 3°C 0°C
9/01/19 16:50 EGKA 091650Z 33005KT 9999 FEW029 04/01 Q1029 NNW (330°) 5.8mph 4°C 1°C
9/01/19 16:20 EGKA 091620Z 33005KT 9999 SCT029 04/00 Q1028 NNW (330°) 5.8mph 4°C 0°C
9/01/19 15:20 EGKA 091520Z 34009KT 9999 FEW026 05/01 Q1028 NNW (340°) 10.4mph 5°C 1°C
9/01/19 14:50 EGKA 091450Z 35013KT 9999 FEW027 05/01 Q1028 N (350°) 15.0mph 5°C 1°C
9/01/19 14:20 EGKA 091420Z 35011KT 9999 FEW022 06/01 Q1028 N (350°) 12.7mph 6°C 1°C
9/01/19 13:50 EGKA 091350Z 35011KT 9999 FEW022 05/01 Q1028 N (350°) 12.7mph 5°C 1°C
9/01/19 13:20 EGKA 091320Z 34011KT 9999 FEW022 06/01 Q1028 NNW (340°) 12.7mph 6°C 1°C
9/01/19 12:50 EGKA 091250Z 34008KT 9999 SCT023 06/02 Q1028 NNW (340°) 9.2mph 6°C 2°C
9/01/19 11:50 EGKA 091150Z 34008KT 9999 SCT023 05/01 Q1029 NNW (340°) 9.2mph 5°C 1°C
9/01/19 11:20 EGKA 091120Z 34011KT 9999 FEW027 05/01 Q1029 NNW (340°) 12.7mph 5°C 1°C
9/01/19 10:50 EGKA 091050Z 33007KT 9999 FEW026 04/01 Q1029 NNW (330°) 8.1mph 4°C 1°C
9/01/19 10:20 EGKA 091020Z 33006KT CAVOK 03/00 Q1029 NNW (330°) 6.9mph 3°C 0°C
9/01/19 09:50 EGKA 090950Z 33005KT CAVOK 03/M01 Q1029 NNW (330°) 5.8mph 3°C -1°C
9/01/19 09:20 EGKA 090920Z 34007KT CAVOK 02/M00 Q1029 NNW (340°) 8.1mph 2°C 0°C
9/01/19 08:50 EGKA 090850Z 33006KT CAVOK 02/M01 Q1029 NNW (330°) 6.9mph 2°C -1°C
9/01/19 07:50 EGKA 090750Z 33008KT CAVOK 02/M00 Q1028 NNW (330°) 9.2mph 2°C 0°C
8/01/19 19:50 EGKA 081950Z 35004KT CAVOK 03/01 Q1029 N (350°) 4.6mph 3°C 1°C